sensor_id;sensor_type;location;lat;lon;timestamp;temperature;humidity
48589;DHT22;34369;51.174;6.738;2022-10-01T00:00:28;11.80;70.10
48589;DHT22;34369;51.174;6.738;2022-10-01T00:03:00;11.90;70.40
48589;DHT22;34369;51.174;6.738;2022-10-01T00:05:32;11.80;70.70
48589;DHT22;34369;51.174;6.738;2022-10-01T00:08:04;11.80;70.90
48589;DHT22;34369;51.174;6.738;2022-10-01T00:10:40;11.80;71.00
48589;DHT22;34369;51.174;6.738;2022-10-01T00:13:12;11.90;71.50
48589;DHT22;34369;51.174;6.738;2022-10-01T00:15:45;11.90;71.70
48589;DHT22;34369;51.174;6.738;2022-10-01T00:18:17;11.90;71.90
48589;DHT22;34369;51.174;6.738;2022-10-01T00:20:49;12.00;72.50
48589;DHT22;34369;51.174;6.738;2022-10-01T00:23:21;11.80;72.20
48589;DHT22;34369;51.174;6.738;2022-10-01T00:25:53;11.80;72.80
48589;DHT22;34369;51.174;6.738;2022-10-01T00:28:25;11.80;73.20
48589;DHT22;34369;51.174;6.738;2022-10-01T00:30:58;11.80;73.50
48589;DHT22;34369;51.174;6.738;2022-10-01T00:33:30;11.80;73.80
48589;DHT22;34369;51.174;6.738;2022-10-01T00:36:03;11.80;74.30
48589;DHT22;34369;51.174;6.738;2022-10-01T00:38:36;11.60;74.40
48589;DHT22;34369;51.174;6.738;2022-10-01T00:41:09;11.70;75.10
48589;DHT22;34369;51.174;6.738;2022-10-01T00:43:44;11.70;75.60
48589;DHT22;34369;51.174;6.738;2022-10-01T00:46:21;11.70;76.00
48589;DHT22;34369;51.174;6.738;2022-10-01T00:48:57;11.70;76.30
48589;DHT22;34369;51.174;6.738;2022-10-01T00:51:34;11.70;77.00
48589;DHT22;34369;51.174;6.738;2022-10-01T00:54:12;11.60;77.00
48589;DHT22;34369;51.174;6.738;2022-10-01T00:56:48;11.60;77.60
48589;DHT22;34369;51.174;6.738;2022-10-01T00:59:21;11.50;77.80
48589;DHT22;34369;51.174;6.738;2022-10-01T01:01:54;11.50;77.70
48589;DHT22;34369;51.174;6.738;2022-10-01T01:04:27;11.60;78.60
48589;DHT22;34369;51.174;6.738;2022-10-01T01:07:01;11.50;78.70
48589;DHT22;34369;51.174;6.738;2022-10-01T01:09:36;11.50;78.60
48589;DHT22;34369;51.174;6.738;2022-10-01T01:12:17;11.50;79.10
48589;DHT22;34369;51.174;6.738;2022-10-01T01:15:06;11.60;79.60
48589;DHT22;34369;51.174;6.738;2022-10-01T01:17:52;11.60;79.70
48589;DHT22;34369;51.174;6.738;2022-10-01T01:21:03;11.40;79.70
48589;DHT22;34369;51.174;6.738;2022-10-01T01:24:03;11.50;80.20
48589;DHT22;34369;51.174;6.738;2022-10-01T01:26:53;11.60;80.80
48589;DHT22;34369;51.174;6.738;2022-10-01T01:29:37;11.50;81.10
48589;DHT22;34369;51.174;6.738;2022-10-01T01:32:22;11.50;81.20
48589;DHT22;34369;51.174;6.738;2022-10-01T01:34:58;11.50;81.70
48589;DHT22;34369;51.174;6.738;2022-10-01T01:37:33;11.30;81.70
48589;DHT22;34369;51.174;6.738;2022-10-01T01:40:09;11.50;81.70
48589;DHT22;34369;51.174;6.738;2022-10-01T01:42:43;11.50;82.50
48589;DHT22;34369;51.174;6.738;2022-10-01T01:45:20;11.40;82.90
48589;DHT22;34369;51.174;6.738;2022-10-01T01:47:54;11.30;83.20
48589;DHT22;34369;51.174;6.738;2022-10-01T01:50:30;11.40;83.30
48589;DHT22;34369;51.174;6.738;2022-10-01T01:53:04;11.30;83.10
48589;DHT22;34369;51.174;6.738;2022-10-01T01:55:36;11.20;83.80
48589;DHT22;34369;51.174;6.738;2022-10-01T02:00:42;11.20;83.90
48589;DHT22;34369;51.174;6.738;2022-10-01T02:05:53;11.20;84.80
48589;DHT22;34369;51.174;6.738;2022-10-01T02:08:39;11.20;85.00
48589;DHT22;34369;51.174;6.738;2022-10-01T02:11:24;11.20;84.60
48589;DHT22;34369;51.174;6.738;2022-10-01T02:14:07;11.30;85.80
48589;DHT22;34369;51.174;6.738;2022-10-01T02:16:47;11.00;85.60
48589;DHT22;34369;51.174;6.738;2022-10-01T02:19:26;11.20;85.70
48589;DHT22;34369;51.174;6.738;2022-10-01T02:22:07;11.20;85.30
48589;DHT22;34369;51.174;6.738;2022-10-01T02:24:44;11.10;86.00
48589;DHT22;34369;51.174;6.738;2022-10-01T02:27:24;11.20;86.00
48589;DHT22;34369;51.174;6.738;2022-10-01T02:30:04;11.20;86.20
48589;DHT22;34369;51.174;6.738;2022-10-01T02:32:43;11.20;86.20
48589;DHT22;34369;51.174;6.738;2022-10-01T02:35:18;11.20;86.40
48589;DHT22;34369;51.174;6.738;2022-10-01T02:37:52;11.20;86.60
48589;DHT22;34369;51.174;6.738;2022-10-01T02:40:27;11.20;86.10
48589;DHT22;34369;51.174;6.738;2022-10-01T02:43:04;11.20;86.80
48589;DHT22;34369;51.174;6.738;2022-10-01T02:45:39;11.00;86.80
48589;DHT22;34369;51.174;6.738;2022-10-01T02:48:13;11.20;86.50
48589;DHT22;34369;51.174;6.738;2022-10-01T02:50:48;11.20;87.10
48589;DHT22;34369;51.174;6.738;2022-10-01T02:53:26;11.20;87.20
48589;DHT22;34369;51.174;6.738;2022-10-01T02:56:02;11.20;87.40
48589;DHT22;34369;51.174;6.738;2022-10-01T03:01:06;11.10;87.30
48589;DHT22;34369;51.174;6.738;2022-10-01T03:03:40;11.20;88.20
48589;DHT22;34369;51.174;6.738;2022-10-01T03:06:14;11.20;87.50
48589;DHT22;34369;51.174;6.738;2022-10-01T03:11:18;11.20;88.20
48589;DHT22;34369;51.174;6.738;2022-10-01T03:13:50;11.20;88.40
48589;DHT22;34369;51.174;6.738;2022-10-01T03:16:23;11.10;88.80
48589;DHT22;34369;51.174;6.738;2022-10-01T03:18:56;11.10;88.20
48589;DHT22;34369;51.174;6.738;2022-10-01T03:21:28;11.20;88.80
48589;DHT22;34369;51.174;6.738;2022-10-01T03:24:00;11.20;89.40
48589;DHT22;34369;51.174;6.738;2022-10-01T03:26:32;11.10;89.20
48589;DHT22;34369;51.174;6.738;2022-10-01T03:29:04;11.20;88.70
48589;DHT22;34369;51.174;6.738;2022-10-01T03:31:36;11.20;89.40
48589;DHT22;34369;51.174;6.738;2022-10-01T03:34:09;11.10;89.60
48589;DHT22;34369;51.174;6.738;2022-10-01T03:36:42;11.10;89.50
48589;DHT22;34369;51.174;6.738;2022-10-01T03:39:14;11.10;89.90
48589;DHT22;34369;51.174;6.738;2022-10-01T03:46:51;11.10;90.10
48589;DHT22;34369;51.174;6.738;2022-10-01T03:49:25;11.00;90.10
48589;DHT22;34369;51.174;6.738;2022-10-01T03:51:57;11.10;90.00
48589;DHT22;34369;51.174;6.738;2022-10-01T03:57:01;11.20;90.00
48589;DHT22;34369;51.174;6.738;2022-10-01T04:02:06;11.10;90.20
48589;DHT22;34369;51.174;6.738;2022-10-01T04:04:39;11.10;90.60
48589;DHT22;34369;51.174;6.738;2022-10-01T04:07:11;11.20;90.40
48589;DHT22;34369;51.174;6.738;2022-10-01T04:09:43;11.10;90.60
48589;DHT22;34369;51.174;6.738;2022-10-01T04:12:14;11.10;90.30
48589;DHT22;34369;51.174;6.738;2022-10-01T04:14:48;11.10;90.40
48589;DHT22;34369;51.174;6.738;2022-10-01T04:17:20;11.20;90.70
48589;DHT22;34369;51.174;6.738;2022-10-01T04:19:53;11.10;90.60
48589;DHT22;34369;51.174;6.738;2022-10-01T04:22:27;11.10;90.50
48589;DHT22;34369;51.174;6.738;2022-10-01T04:24:58;11.30;90.50
48589;DHT22;34369;51.174;6.738;2022-10-01T04:27:30;11.10;90.70
48589;DHT22;34369;51.174;6.738;2022-10-01T04:30:03;11.20;90.70
48589;DHT22;34369;51.174;6.738;2022-10-01T04:32:36;11.20;90.80
48589;DHT22;34369;51.174;6.738;2022-10-01T04:35:10;11.20;90.70
48589;DHT22;34369;51.174;6.738;2022-10-01T04:37:42;11.20;90.70
48589;DHT22;34369;51.174;6.738;2022-10-01T04:40:14;11.20;90.60
48589;DHT22;34369;51.174;6.738;2022-10-01T04:42:46;11.20;90.70
48589;DHT22;34369;51.174;6.738;2022-10-01T04:45:17;11.30;90.70
48589;DHT22;34369;51.174;6.738;2022-10-01T04:47:50;11.20;90.70
48589;DHT22;34369;51.174;6.738;2022-10-01T04:50:25;11.20;90.70
48589;DHT22;34369;51.174;6.738;2022-10-01T04:52:58;11.30;90.80
48589;DHT22;34369;51.174;6.738;2022-10-01T04:55:30;11.30;90.90
48589;DHT22;34369;51.174;6.738;2022-10-01T04:58:02;11.30;90.60
48589;DHT22;34369;51.174;6.738;2022-10-01T05:00:34;11.40;90.90
48589;DHT22;34369;51.174;6.738;2022-10-01T05:03:06;11.30;91.00
48589;DHT22;34369;51.174;6.738;2022-10-01T05:05:39;11.30;91.10
48589;DHT22;34369;51.174;6.738;2022-10-01T05:08:11;11.30;91.10
48589;DHT22;34369;51.174;6.738;2022-10-01T05:13:15;11.40;91.00
48589;DHT22;34369;51.174;6.738;2022-10-01T05:15:48;11.30;91.10
48589;DHT22;34369;51.174;6.738;2022-10-01T05:18:21;11.40;91.20
48589;DHT22;34369;51.174;6.738;2022-10-01T05:20:54;11.40;91.20
48589;DHT22;34369;51.174;6.738;2022-10-01T05:23:26;11.40;91.20
48589;DHT22;34369;51.174;6.738;2022-10-01T05:25:58;11.50;91.20
48589;DHT22;34369;51.174;6.738;2022-10-01T05:31:03;11.60;91.40
48589;DHT22;34369;51.174;6.738;2022-10-01T05:33:35;11.60;91.40
48589;DHT22;34369;51.174;6.738;2022-10-01T05:36:08;11.60;91.20
48589;DHT22;34369;51.174;6.738;2022-10-01T05:41:12;11.50;91.50
48589;DHT22;34369;51.174;6.738;2022-10-01T05:43:47;11.60;91.60
48589;DHT22;34369;51.174;6.738;2022-10-01T05:46:19;11.70;91.60
48589;DHT22;34369;51.174;6.738;2022-10-01T05:51:26;11.70;91.60
48589;DHT22;34369;51.174;6.738;2022-10-01T05:53:58;11.70;91.60
48589;DHT22;34369;51.174;6.738;2022-10-01T05:56:32;11.80;91.60
48589;DHT22;34369;51.174;6.738;2022-10-01T05:59:04;11.90;91.70
48589;DHT22;34369;51.174;6.738;2022-10-01T06:01:36;12.00;91.70
48589;DHT22;34369;51.174;6.738;2022-10-01T06:06:42;11.90;91.50
48589;DHT22;34369;51.174;6.738;2022-10-01T06:09:14;11.90;91.40
48589;DHT22;34369;51.174;6.738;2022-10-01T06:11:46;12.00;91.60
48589;DHT22;34369;51.174;6.738;2022-10-01T06:16:52;12.10;91.40
48589;DHT22;34369;51.174;6.738;2022-10-01T06:21:58;12.10;91.30
48589;DHT22;34369;51.174;6.738;2022-10-01T06:27:03;12.20;91.20
48589;DHT22;34369;51.174;6.738;2022-10-01T06:29:35;12.30;91.40
48589;DHT22;34369;51.174;6.738;2022-10-01T06:32:07;12.20;91.30
48589;DHT22;34369;51.174;6.738;2022-10-01T06:37:16;12.30;91.10
48589;DHT22;34369;51.174;6.738;2022-10-01T06:44:53;12.40;91.30
48589;DHT22;34369;51.174;6.738;2022-10-01T06:47:25;12.50;91.30
48589;DHT22;34369;51.174;6.738;2022-10-01T06:49:57;12.50;91.40
48589;DHT22;34369;51.174;6.738;2022-10-01T06:52:30;12.40;91.30
48589;DHT22;34369;51.174;6.738;2022-10-01T06:55:21;12.40;91.20
48589;DHT22;34369;51.174;6.738;2022-10-01T06:57:57;12.60;91.20
48589;DHT22;34369;51.174;6.738;2022-10-01T07:00:31;12.50;91.30
48589;DHT22;34369;51.174;6.738;2022-10-01T07:03:05;12.70;91.20
48589;DHT22;34369;51.174;6.738;2022-10-01T07:05:40;12.60;91.30
48589;DHT22;34369;51.174;6.738;2022-10-01T07:08:14;12.70;91.30
48589;DHT22;34369;51.174;6.738;2022-10-01T07:13:18;12.80;91.10
48589;DHT22;34369;51.174;6.738;2022-10-01T07:15:51;12.80;91.20
48589;DHT22;34369;51.174;6.738;2022-10-01T07:18:22;12.90;91.20
48589;DHT22;34369;51.174;6.738;2022-10-01T07:20:55;12.80;91.10
48589;DHT22;34369;51.174;6.738;2022-10-01T07:23:28;12.90;91.00
48589;DHT22;34369;51.174;6.738;2022-10-01T07:26:03;12.90;91.10
48589;DHT22;34369;51.174;6.738;2022-10-01T07:28:35;12.80;90.90
48589;DHT22;34369;51.174;6.738;2022-10-01T07:31:08;12.90;90.80
48589;DHT22;34369;51.174;6.738;2022-10-01T07:33:40;12.90;91.00
48589;DHT22;34369;51.174;6.738;2022-10-01T07:36:12;12.90;91.00
48589;DHT22;34369;51.174;6.738;2022-10-01T07:38:48;13.10;90.90
48589;DHT22;34369;51.174;6.738;2022-10-01T07:41:20;13.10;90.90
48589;DHT22;34369;51.174;6.738;2022-10-01T07:43:52;13.00;90.90
48589;DHT22;34369;51.174;6.738;2022-10-01T07:46:24;13.00;91.00
48589;DHT22;34369;51.174;6.738;2022-10-01T07:48:56;13.00;91.00
48589;DHT22;34369;51.174;6.738;2022-10-01T07:51:28;13.10;91.00
48589;DHT22;34369;51.174;6.738;2022-10-01T07:54:01;13.10;91.00
48589;DHT22;34369;51.174;6.738;2022-10-01T07:56:33;13.10;91.00
48589;DHT22;34369;51.174;6.738;2022-10-01T07:59:05;13.00;91.20
48589;DHT22;34369;51.174;6.738;2022-10-01T08:01:40;12.90;91.30
48589;DHT22;34369;51.174;6.738;2022-10-01T08:04:14;13.10;91.30
48589;DHT22;34369;51.174;6.738;2022-10-01T08:07:04;13.20;91.60
48589;DHT22;34369;51.174;6.738;2022-10-01T08:09:38;13.20;91.80
48589;DHT22;34369;51.174;6.738;2022-10-01T08:12:10;13.30;92.00
48589;DHT22;34369;51.174;6.738;2022-10-01T08:14:42;13.50;91.80
48589;DHT22;34369;51.174;6.738;2022-10-01T08:17:15;13.40;91.60
48589;DHT22;34369;51.174;6.738;2022-10-01T08:19:47;13.50;91.60
48589;DHT22;34369;51.174;6.738;2022-10-01T08:22:20;13.50;91.60
48589;DHT22;34369;51.174;6.738;2022-10-01T08:24:53;13.70;91.80
48589;DHT22;34369;51.174;6.738;2022-10-01T08:27:26;13.80;91.60
48589;DHT22;34369;51.174;6.738;2022-10-01T08:29:58;13.70;91.70
48589;DHT22;34369;51.174;6.738;2022-10-01T08:32:33;13.80;91.70
48589;DHT22;34369;51.174;6.738;2022-10-01T08:35:06;13.90;91.90
48589;DHT22;34369;51.174;6.738;2022-10-01T08:37:38;14.00;91.80
48589;DHT22;34369;51.174;6.738;2022-10-01T08:40:12;14.10;91.50
48589;DHT22;34369;51.174;6.738;2022-10-01T08:42:50;14.10;91.50
48589;DHT22;34369;51.174;6.738;2022-10-01T08:45:26;14.20;91.10
48589;DHT22;34369;51.174;6.738;2022-10-01T08:48:06;14.30;91.10
48589;DHT22;34369;51.174;6.738;2022-10-01T08:50:50;14.40;90.90
48589;DHT22;34369;51.174;6.738;2022-10-01T08:53:30;14.40;90.60
48589;DHT22;34369;51.174;6.738;2022-10-01T08:56:16;14.30;90.50
48589;DHT22;34369;51.174;6.738;2022-10-01T08:58:55;14.40;90.60
48589;DHT22;34369;51.174;6.738;2022-10-01T09:01:46;14.50;90.60
48589;DHT22;34369;51.174;6.738;2022-10-01T09:04:18;14.50;90.90
48589;DHT22;34369;51.174;6.738;2022-10-01T09:06:55;14.50;90.80
48589;DHT22;34369;51.174;6.738;2022-10-01T09:09:42;14.70;91.00
48589;DHT22;34369;51.174;6.738;2022-10-01T09:12:27;12.70;90.20
48589;DHT22;34369;51.174;6.738;2022-10-01T09:15:16;14.80;90.50
48589;DHT22;34369;51.174;6.738;2022-10-01T09:18:00;14.60;90.30
48589;DHT22;34369;51.174;6.738;2022-10-01T09:20:40;14.70;90.20
48589;DHT22;34369;51.174;6.738;2022-10-01T09:23:17;14.60;90.30
48589;DHT22;34369;51.174;6.738;2022-10-01T09:25:50;14.60;90.10
48589;DHT22;34369;51.174;6.738;2022-10-01T09:28:27;14.50;90.10
48589;DHT22;34369;51.174;6.738;2022-10-01T09:31:05;14.40;90.10
48589;DHT22;34369;51.174;6.738;2022-10-01T09:33:47;14.50;90.30
48589;DHT22;34369;51.174;6.738;2022-10-01T09:36:26;14.50;90.40
48589;DHT22;34369;51.174;6.738;2022-10-01T09:39:13;14.30;90.60
48589;DHT22;34369;51.174;6.738;2022-10-01T09:41:48;14.40;90.70
48589;DHT22;34369;51.174;6.738;2022-10-01T09:44:25;14.30;90.80
48589;DHT22;34369;51.174;6.738;2022-10-01T09:46:58;14.30;90.80
48589;DHT22;34369;51.174;6.738;2022-10-01T09:49:32;14.40;91.30
48589;DHT22;34369;51.174;6.738;2022-10-01T09:52:12;14.40;91.20
48589;DHT22;34369;51.174;6.738;2022-10-01T09:54:51;14.30;91.50
48589;DHT22;34369;51.174;6.738;2022-10-01T09:57:28;14.30;91.60
48589;DHT22;34369;51.174;6.738;2022-10-01T10:00:07;14.40;91.60
48589;DHT22;34369;51.174;6.738;2022-10-01T10:02:43;14.50;91.30
48589;DHT22;34369;51.174;6.738;2022-10-01T10:05:18;14.50;91.20
48589;DHT22;34369;51.174;6.738;2022-10-01T10:07:52;14.60;91.50
48589;DHT22;34369;51.174;6.738;2022-10-01T10:10:28;14.60;91.40
48589;DHT22;34369;51.174;6.738;2022-10-01T10:13:24;14.80;91.30
48589;DHT22;34369;51.174;6.738;2022-10-01T10:16:08;14.90;91.50
48589;DHT22;34369;51.174;6.738;2022-10-01T10:18:47;14.90;91.30
48589;DHT22;34369;51.174;6.738;2022-10-01T10:21:23;14.90;91.30
48589;DHT22;34369;51.174;6.738;2022-10-01T10:23:58;15.10;91.00
48589;DHT22;34369;51.174;6.738;2022-10-01T10:26:33;15.20;91.20
48589;DHT22;34369;51.174;6.738;2022-10-01T10:29:24;15.30;91.10
48589;DHT22;34369;51.174;6.738;2022-10-01T10:32:02;15.30;91.00
48589;DHT22;34369;51.174;6.738;2022-10-01T10:34:36;15.70;91.30
48589;DHT22;34369;51.174;6.738;2022-10-01T10:37:13;15.60;91.90
48589;DHT22;34369;51.174;6.738;2022-10-01T10:39:48;16.10;91.30
48589;DHT22;34369;51.174;6.738;2022-10-01T10:42:21;16.30;90.90
48589;DHT22;34369;51.174;6.738;2022-10-01T10:44:56;16.40;91.30
48589;DHT22;34369;51.174;6.738;2022-10-01T10:47:43;16.70;90.40
48589;DHT22;34369;51.174;6.738;2022-10-01T10:50:27;17.00;86.60
48589;DHT22;34369;51.174;6.738;2022-10-01T10:53:12;17.20;86.40
48589;DHT22;34369;51.174;6.738;2022-10-01T10:55:56;17.20;86.20
48589;DHT22;34369;51.174;6.738;2022-10-01T10:58:31;17.50;86.80
48589;DHT22;34369;51.174;6.738;2022-10-01T11:01:06;17.70;85.80
48589;DHT22;34369;51.174;6.738;2022-10-01T11:03:45;17.60;85.80
48589;DHT22;34369;51.174;6.738;2022-10-01T11:06:19;17.90;85.90
48589;DHT22;34369;51.174;6.738;2022-10-01T11:08:58;18.10;85.00
48589;DHT22;34369;51.174;6.738;2022-10-01T11:11:42;18.30;82.20
48589;DHT22;34369;51.174;6.738;2022-10-01T11:14:28;18.30;81.20
48589;DHT22;34369;51.174;6.738;2022-10-01T11:20:28;18.20;79.20
48589;DHT22;34369;51.174;6.738;2022-10-01T11:23:19;18.10;79.00
48589;DHT22;34369;51.174;6.738;2022-10-01T11:26:05;18.00;79.60
48589;DHT22;34369;51.174;6.738;2022-10-01T11:28:51;18.00;80.00
48589;DHT22;34369;51.174;6.738;2022-10-01T11:31:37;18.20;80.00
48589;DHT22;34369;51.174;6.738;2022-10-01T11:34:28;18.10;80.30
48589;DHT22;34369;51.174;6.738;2022-10-01T11:37:14;18.30;79.40
48589;DHT22;34369;51.174;6.738;2022-10-01T11:40:00;18.50;78.60
48589;DHT22;34369;51.174;6.738;2022-10-01T11:42:35;18.70;78.50
48589;DHT22;34369;51.174;6.738;2022-10-01T11:45:15;18.80;78.80
48589;DHT22;34369;51.174;6.738;2022-10-01T11:47:53;19.00;76.30
48589;DHT22;34369;51.174;6.738;2022-10-01T11:50:27;19.20;75.50
48589;DHT22;34369;51.174;6.738;2022-10-01T11:53:07;19.40;74.30
48589;DHT22;34369;51.174;6.738;2022-10-01T11:55:44;19.60;72.50
48589;DHT22;34369;51.174;6.738;2022-10-01T11:58:40;19.50;72.40
48589;DHT22;34369;51.174;6.738;2022-10-01T12:01:28;19.50;72.10
48589;DHT22;34369;51.174;6.738;2022-10-01T12:04:12;19.40;71.30
48589;DHT22;34369;51.174;6.738;2022-10-01T12:06:53;19.40;71.20
48589;DHT22;34369;51.174;6.738;2022-10-01T12:09:35;19.40;71.80
48589;DHT22;34369;51.174;6.738;2022-10-01T12:12:14;19.40;71.40
48589;DHT22;34369;51.174;6.738;2022-10-01T12:14:51;19.60;71.30
48589;DHT22;34369;51.174;6.738;2022-10-01T12:17:31;19.60;70.90
48589;DHT22;34369;51.174;6.738;2022-10-01T12:20:13;19.80;70.60
48589;DHT22;34369;51.174;6.738;2022-10-01T12:22:52;20.00;67.20
48589;DHT22;34369;51.174;6.738;2022-10-01T12:25:32;20.30;67.50
48589;DHT22;34369;51.174;6.738;2022-10-01T12:28:11;20.20;67.40
48589;DHT22;34369;51.174;6.738;2022-10-01T12:30:50;20.50;68.20
48589;DHT22;34369;51.174;6.738;2022-10-01T12:33:41;20.70;67.10
48589;DHT22;34369;51.174;6.738;2022-10-01T12:36:28;20.90;65.40
48589;DHT22;34369;51.174;6.738;2022-10-01T12:39:18;21.20;65.20
48589;DHT22;34369;51.174;6.738;2022-10-01T12:42:09;21.40;65.00
48589;DHT22;34369;51.174;6.738;2022-10-01T12:44:55;21.60;63.20
48589;DHT22;34369;51.174;6.738;2022-10-01T12:47:38;21.90;62.30
48589;DHT22;34369;51.174;6.738;2022-10-01T12:50:21;21.80;62.50
48589;DHT22;34369;51.174;6.738;2022-10-01T12:53:14;22.00;60.70
48589;DHT22;34369;51.174;6.738;2022-10-01T12:55:55;22.10;62.00
48589;DHT22;34369;51.174;6.738;2022-10-01T12:58:53;22.30;61.50
48589;DHT22;34369;51.174;6.738;2022-10-01T13:01:45;22.40;61.30
48589;DHT22;34369;51.174;6.738;2022-10-01T13:04:50;22.50;60.20
48589;DHT22;34369;51.174;6.738;2022-10-01T13:07:39;22.50;60.30
48589;DHT22;34369;51.174;6.738;2022-10-01T13:10:30;22.50;59.40
48589;DHT22;34369;51.174;6.738;2022-10-01T13:13:15;22.30;57.90
48589;DHT22;34369;51.174;6.738;2022-10-01T13:15:57;21.90;57.80
48589;DHT22;34369;51.174;6.738;2022-10-01T13:18:38;21.80;57.70
48589;DHT22;34369;51.174;6.738;2022-10-01T13:21:24;21.70;58.60
48589;DHT22;34369;51.174;6.738;2022-10-01T13:24:04;21.60;59.50
48589;DHT22;34369;51.174;6.738;2022-10-01T13:26:49;21.60;58.90
48589;DHT22;34369;51.174;6.738;2022-10-01T13:29:35;21.60;58.80
48589;DHT22;34369;51.174;6.738;2022-10-01T13:32:29;21.90;59.00
48589;DHT22;34369;51.174;6.738;2022-10-01T13:35:21;21.80;57.60
48589;DHT22;34369;51.174;6.738;2022-10-01T13:37:55;21.90;57.00
48589;DHT22;34369;51.174;6.738;2022-10-01T13:40:29;22.00;58.50
48589;DHT22;34369;51.174;6.738;2022-10-01T13:43:11;21.90;59.00
48589;DHT22;34369;51.174;6.738;2022-10-01T13:45:46;22.00;57.50
48589;DHT22;34369;51.174;6.738;2022-10-01T13:48:22;21.90;57.50
48589;DHT22;34369;51.174;6.738;2022-10-01T13:50:58;21.70;56.60
48589;DHT22;34369;51.174;6.738;2022-10-01T13:53:35;21.70;57.10
48589;DHT22;34369;51.174;6.738;2022-10-01T13:56:10;21.60;57.70
48589;DHT22;34369;51.174;6.738;2022-10-01T13:58:45;21.60;57.30
48589;DHT22;34369;51.174;6.738;2022-10-01T14:01:38;21.60;57.30
48589;DHT22;34369;51.174;6.738;2022-10-01T14:04:21;21.60;56.80
48589;DHT22;34369;51.174;6.738;2022-10-01T14:06:57;21.70;56.30
48589;DHT22;34369;51.174;6.738;2022-10-01T14:09:32;21.80;57.20
48589;DHT22;34369;51.174;6.738;2022-10-01T14:12:09;22.00;57.80
48589;DHT22;34369;51.174;6.738;2022-10-01T14:15:13;22.00;58.70
48589;DHT22;34369;51.174;6.738;2022-10-01T14:18:08;22.20;57.60
48589;DHT22;34369;51.174;6.738;2022-10-01T14:20:51;22.40;58.10
48589;DHT22;34369;51.174;6.738;2022-10-01T14:23:34;22.50;58.20
48589;DHT22;34369;51.174;6.738;2022-10-01T14:26:17;22.70;58.30
48589;DHT22;34369;51.174;6.738;2022-10-01T14:29:02;22.80;57.00
48589;DHT22;34369;51.174;6.738;2022-10-01T14:31:48;22.80;56.30
48589;DHT22;34369;51.174;6.738;2022-10-01T14:34:42;22.90;56.20
48589;DHT22;34369;51.174;6.738;2022-10-01T14:37:22;22.90;55.80
48589;DHT22;34369;51.174;6.738;2022-10-01T14:40:01;22.80;55.90
48589;DHT22;34369;51.174;6.738;2022-10-01T14:42:34;22.70;55.60
48589;DHT22;34369;51.174;6.738;2022-10-01T14:45:14;22.60;55.40
48589;DHT22;34369;51.174;6.738;2022-10-01T14:47:46;22.40;54.90
48589;DHT22;34369;51.174;6.738;2022-10-01T14:50:20;22.20;55.10
48589;DHT22;34369;51.174;6.738;2022-10-01T14:52:53;21.90;55.40
48589;DHT22;34369;51.174;6.738;2022-10-01T14:55:25;21.70;55.60
48589;DHT22;34369;51.174;6.738;2022-10-01T14:57:58;21.40;56.00
48589;DHT22;34369;51.174;6.738;2022-10-01T15:00:30;21.00;56.30
48589;DHT22;34369;51.174;6.738;2022-10-01T15:03:09;20.70;56.50
48589;DHT22;34369;51.174;6.738;2022-10-01T15:05:44;20.60;56.90
48589;DHT22;34369;51.174;6.738;2022-10-01T15:08:19;20.40;57.80
48589;DHT22;34369;51.174;6.738;2022-10-01T15:10:57;20.10;58.20
48589;DHT22;34369;51.174;6.738;2022-10-01T15:13:33;20.10;58.90
48589;DHT22;34369;51.174;6.738;2022-10-01T15:16:10;20.10;59.10
48589;DHT22;34369;51.174;6.738;2022-10-01T15:18:45;19.90;58.60
48589;DHT22;34369;51.174;6.738;2022-10-01T15:21:23;20.00;58.70
48589;DHT22;34369;51.174;6.738;2022-10-01T15:24:00;19.90;58.50
48589;DHT22;34369;51.174;6.738;2022-10-01T15:26:33;19.80;58.50
48589;DHT22;34369;51.174;6.738;2022-10-01T15:29:11;19.80;58.40
48589;DHT22;34369;51.174;6.738;2022-10-01T15:31:45;19.70;58.80
48589;DHT22;34369;51.174;6.738;2022-10-01T15:34:19;19.60;59.30
48589;DHT22;34369;51.174;6.738;2022-10-01T15:36:53;19.60;59.50
48589;DHT22;34369;51.174;6.738;2022-10-01T15:39:32;19.60;59.80
48589;DHT22;34369;51.174;6.738;2022-10-01T15:42:07;19.60;59.60
48589;DHT22;34369;51.174;6.738;2022-10-01T15:44:43;19.60;58.70
48589;DHT22;34369;51.174;6.738;2022-10-01T15:47:26;19.50;58.80
48589;DHT22;34369;51.174;6.738;2022-10-01T15:50:15;19.60;58.60
48589;DHT22;34369;51.174;6.738;2022-10-01T15:52:52;19.60;58.80
48589;DHT22;34369;51.174;6.738;2022-10-01T15:55:36;19.50;58.50
48589;DHT22;34369;51.174;6.738;2022-10-01T15:58:15;19.40;58.00
48589;DHT22;34369;51.174;6.738;2022-10-01T16:00:58;19.20;57.70
48589;DHT22;34369;51.174;6.738;2022-10-01T16:03:33;19.00;57.60
48589;DHT22;34369;51.174;6.738;2022-10-01T16:06:16;19.00;57.70
48589;DHT22;34369;51.174;6.738;2022-10-01T16:09:02;18.90;57.40
48589;DHT22;34369;51.174;6.738;2022-10-01T16:11:53;18.90;58.00
48589;DHT22;34369;51.174;6.738;2022-10-01T16:14:30;18.70;58.10
48589;DHT22;34369;51.174;6.738;2022-10-01T16:17:32;18.60;58.20
48589;DHT22;34369;51.174;6.738;2022-10-01T16:20:33;18.50;58.30
48589;DHT22;34369;51.174;6.738;2022-10-01T16:26:05;18.20;58.80
48589;DHT22;34369;51.174;6.738;2022-10-01T16:29:18;18.00;58.90
48589;DHT22;34369;51.174;6.738;2022-10-01T16:31:54;17.90;59.30
48589;DHT22;34369;51.174;6.738;2022-10-01T16:34:26;17.90;59.60
48589;DHT22;34369;51.174;6.738;2022-10-01T16:36:58;17.60;58.90
48589;DHT22;34369;51.174;6.738;2022-10-01T16:39:30;17.50;59.10
48589;DHT22;34369;51.174;6.738;2022-10-01T16:42:02;17.50;58.80
48589;DHT22;34369;51.174;6.738;2022-10-01T16:44:38;17.40;59.20
48589;DHT22;34369;51.174;6.738;2022-10-01T16:47:11;17.20;59.10
48589;DHT22;34369;51.174;6.738;2022-10-01T16:49:44;17.10;59.00
48589;DHT22;34369;51.174;6.738;2022-10-01T16:52:17;17.10;59.40
48589;DHT22;34369;51.174;6.738;2022-10-01T16:57:21;17.00;59.30
48589;DHT22;34369;51.174;6.738;2022-10-01T16:59:54;16.80;59.40
48589;DHT22;34369;51.174;6.738;2022-10-01T17:02:26;16.80;59.80
48589;DHT22;34369;51.174;6.738;2022-10-01T17:04:58;16.60;59.40
48589;DHT22;34369;51.174;6.738;2022-10-01T17:07:30;16.50;59.40
48589;DHT22;34369;51.174;6.738;2022-10-01T17:10:03;16.50;59.40
48589;DHT22;34369;51.174;6.738;2022-10-01T17:12:35;16.40;59.90
48589;DHT22;34369;51.174;6.738;2022-10-01T17:15:12;16.30;59.90
48589;DHT22;34369;51.174;6.738;2022-10-01T17:17:45;16.30;60.30
48589;DHT22;34369;51.174;6.738;2022-10-01T17:20:17;16.20;60.00
48589;DHT22;34369;51.174;6.738;2022-10-01T17:22:50;16.10;60.30
48589;DHT22;34369;51.174;6.738;2022-10-01T17:25:24;16.00;60.10
48589;DHT22;34369;51.174;6.738;2022-10-01T17:28:02;15.90;60.70
48589;DHT22;34369;51.174;6.738;2022-10-01T17:30:38;15.90;60.70
48589;DHT22;34369;51.174;6.738;2022-10-01T17:33:11;15.70;60.60